createdAt,value
2017-07-12T00:00:25.294Z,18.00
2017-07-12T00:02:52.840Z,17.90
2017-07-12T00:05:20.473Z,17.80
2017-07-12T00:07:48.031Z,17.70
2017-07-12T00:10:15.579Z,17.70
2017-07-12T00:12:43.154Z,17.80
2017-07-12T00:15:10.709Z,17.90
2017-07-12T00:17:38.267Z,17.90
2017-07-12T00:20:05.854Z,17.90
2017-07-12T00:22:33.389Z,18.00
2017-07-12T00:25:00.966Z,18.00
2017-07-12T00:27:29.619Z,18.00
2017-07-12T00:29:57.307Z,17.90
2017-07-12T00:32:24.969Z,18.00
2017-07-12T00:34:53.224Z,17.90
2017-07-12T00:37:20.827Z,17.90
2017-07-12T00:39:48.469Z,17.90
2017-07-12T00:42:16.074Z,17.80
2017-07-12T00:44:44.557Z,17.70
2017-07-12T00:47:12.990Z,17.80
2017-07-12T00:49:40.716Z,17.80
2017-07-12T00:52:08.322Z,17.80
2017-07-12T00:54:35.987Z,17.70
2017-07-12T00:57:03.672Z,17.80
2017-07-12T00:59:32.008Z,17.80
2017-07-12T01:01:59.632Z,17.80
2017-07-12T01:04:29.201Z,17.70
2017-07-12T01:06:56.807Z,17.70
2017-07-12T01:09:24.390Z,17.70
2017-07-12T01:11:51.934Z,17.70
2017-07-12T01:14:19.502Z,17.70
2017-07-12T01:16:47.050Z,17.50
2017-07-12T01:19:14.627Z,17.50
2017-07-12T01:21:42.169Z,17.60
2017-07-12T01:24:09.765Z,17.70
2017-07-12T01:26:37.324Z,17.70
2017-07-12T01:29:04.870Z,17.60
2017-07-12T01:31:32.452Z,17.60
2017-07-12T01:33:59.997Z,17.70
2017-07-12T01:36:27.546Z,17.70
2017-07-12T01:38:55.135Z,18.00
2017-07-12T01:41:23.307Z,17.90
2017-07-12T01:43:50.890Z,18.10
2017-07-12T01:46:19.231Z,18.00
2017-07-12T01:48:47.088Z,18.00
2017-07-12T01:51:14.675Z,18.00
2017-07-12T01:53:42.992Z,17.90
2017-07-12T01:56:10.561Z,17.90
2017-07-12T01:58:38.134Z,18.00
2017-07-12T02:01:05.721Z,18.00
2017-07-12T02:03:33.279Z,17.90
2017-07-12T02:06:00.818Z,17.90
2017-07-12T02:08:28.412Z,18.00
2017-07-12T02:10:55.958Z,18.00
2017-07-12T02:13:23.505Z,18.00
2017-07-12T02:15:51.095Z,18.20
2017-07-12T02:18:19.394Z,18.00
2017-07-12T02:20:46.965Z,18.00
2017-07-12T02:23:14.513Z,17.80
2017-07-12T02:25:42.088Z,17.90
2017-07-12T02:33:56.399Z,17.90
2017-07-12T02:36:23.944Z,17.90
2017-07-12T02:38:51.490Z,17.90
2017-07-12T02:41:19.064Z,17.90
2017-07-12T02:43:46.597Z,18.10
2017-07-12T02:46:14.182Z,18.00
2017-07-12T02:48:41.719Z,18.10
2017-07-12T02:51:09.264Z,18.20
2017-07-12T02:53:36.854Z,18.20
2017-07-12T02:56:04.415Z,18.10
2017-07-12T02:58:31.986Z,18.10
2017-07-12T03:00:59.566Z,18.00
2017-07-12T03:03:27.136Z,18.00
2017-07-12T03:05:55.433Z,18.00
2017-07-12T03:28:32.218Z,17.70
2017-07-12T03:30:59.815Z,17.60
2017-07-12T03:33:27.425Z,17.60
2017-07-12T03:35:55.763Z,17.70
2017-07-12T03:47:16.306Z,17.50
2017-07-12T03:49:43.866Z,17.40
2017-07-12T03:52:11.448Z,17.30
2017-07-12T03:54:38.999Z,17.10
2017-07-12T03:57:06.550Z,17.10
2017-07-12T04:08:13.816Z,16.90
2017-07-12T04:10:41.420Z,17.10
2017-07-12T04:13:09.270Z,17.00
2017-07-12T04:15:36.885Z,16.90
2017-07-12T04:18:23.398Z,16.80
2017-07-12T04:20:50.967Z,16.80
2017-07-12T04:23:19.361Z,16.90
2017-07-12T04:25:48.676Z,16.70
2017-07-12T04:31:29.035Z,16.70
2017-07-12T04:33:56.593Z,16.70
2017-07-12T04:36:24.207Z,16.80
2017-07-12T04:38:51.762Z,16.90
2017-07-12T04:41:19.326Z,16.90
2017-07-12T04:43:46.934Z,16.90
2017-07-12T04:46:14.502Z,17.00
2017-07-12T04:48:42.103Z,17.10
2017-07-12T04:51:13.657Z,17.20
2017-07-12T04:53:45.256Z,17.30
2017-07-12T04:56:13.735Z,17.10
2017-07-12T04:58:41.295Z,17.10
2017-07-12T05:01:09.690Z,17.10
2017-07-12T05:09:36.606Z,16.90
2017-07-12T05:12:33.205Z,16.90
2017-07-12T05:15:20.409Z,16.80
2017-07-12T05:17:48.014Z,16.70
2017-07-12T05:20:15.647Z,16.70
2017-07-12T05:22:43.274Z,16.60
2017-07-12T05:25:10.869Z,16.70
2017-07-12T05:27:38.447Z,16.60
2017-07-12T05:30:06.039Z,16.50
2017-07-12T05:32:33.599Z,16.50
2017-07-12T05:35:01.178Z,16.70
2017-07-12T05:37:28.727Z,16.80
2017-07-12T05:39:56.320Z,16.80
2017-07-12T05:42:24.649Z,16.80
2017-07-12T05:44:52.211Z,16.80
2017-07-12T05:47:20.017Z,16.80
2017-07-12T05:49:48.392Z,16.90
2017-07-12T05:52:16.714Z,16.90
2017-07-12T06:04:40.424Z,16.60
2017-07-12T06:10:01.354Z,16.80
2017-07-12T06:18:29.827Z,17.00
2017-07-12T06:33:04.529Z,16.80
2017-07-12T06:35:33.241Z,16.90
2017-07-12T06:38:07.960Z,16.90
2017-07-12T06:40:45.997Z,16.80
2017-07-12T06:53:16.351Z,16.70
2017-07-12T07:22:01.036Z,16.70
2017-07-12T07:24:29.882Z,16.70
2017-07-12T07:27:01.615Z,16.80
2017-07-12T07:29:32.149Z,16.90
2017-07-12T07:34:58.186Z,16.90
2017-07-12T08:01:39.425Z,16.80
2017-07-12T08:04:06.970Z,16.90
2017-07-12T08:06:35.279Z,17.10
2017-07-12T08:09:02.859Z,17.00
2017-07-12T08:11:30.448Z,17.30
2017-07-12T08:13:58.041Z,17.40
2017-07-12T08:16:25.579Z,17.50
2017-07-12T08:18:53.890Z,17.70
2017-07-12T08:21:21.505Z,17.70
2017-07-12T08:23:49.055Z,17.60
2017-07-12T08:26:16.597Z,17.70
2017-07-12T08:28:44.176Z,17.80
2017-07-12T08:31:11.729Z,17.90
2017-07-12T08:33:39.298Z,17.80
2017-07-12T08:36:07.657Z,17.80
2017-07-12T08:38:35.207Z,17.80
2017-07-12T08:41:02.786Z,17.80
2017-07-12T08:43:30.405Z,17.50
2017-07-12T08:45:58.820Z,17.60
2017-07-12T08:48:26.399Z,17.50
2017-07-12T08:50:54.715Z,17.20
2017-07-12T08:53:22.330Z,17.20
2017-07-12T08:55:50.643Z,17.50
2017-07-12T08:58:18.174Z,17.50
2017-07-12T09:00:46.513Z,17.30
2017-07-12T09:03:14.070Z,17.30
2017-07-12T09:05:41.655Z,17.40
2017-07-12T09:08:09.200Z,17.30
2017-07-12T09:10:36.737Z,17.40
2017-07-12T09:13:04.336Z,17.50
2017-07-12T09:15:32.643Z,17.50
2017-07-12T09:18:00.229Z,17.40
2017-07-12T09:20:27.769Z,17.50
2017-07-12T09:22:55.315Z,17.60
2017-07-12T09:52:21.063Z,17.80
2017-07-12T09:55:06.073Z,17.80
2017-07-12T10:07:06.602Z,17.60
2017-07-12T10:21:31.733Z,17.90
2017-07-12T11:49:23.030Z,17.90
2017-07-12T11:51:50.577Z,19.20
2017-07-12T11:54:20.001Z,19.20
2017-07-12T11:56:47.638Z,19.30
2017-07-12T11:59:15.799Z,19.20
2017-07-12T12:01:47.063Z,19.20
2017-07-12T12:04:19.562Z,19.10
2017-07-12T12:06:48.309Z,19.10
2017-07-12T12:09:17.418Z,19.00
2017-07-12T12:11:44.982Z,19.10
2017-07-12T12:14:15.363Z,19.10
2017-07-12T12:19:40.453Z,19.00
2017-07-12T12:42:12.512Z,17.20
2017-07-12T12:44:48.018Z,17.20
2017-07-12T12:47:17.559Z,17.20
2017-07-12T12:49:50.374Z,17.10
2017-07-12T12:52:17.974Z,17.20
2017-07-12T12:54:45.514Z,17.20
2017-07-12T12:57:13.114Z,17.40
2017-07-12T12:59:40.698Z,17.40
2017-07-12T13:02:08.246Z,17.40
2017-07-12T13:04:41.383Z,17.50
2017-07-12T13:07:08.923Z,17.40
2017-07-12T13:09:36.515Z,17.40
2017-07-12T13:12:04.062Z,17.30
2017-07-12T13:14:31.622Z,17.40
2017-07-12T13:16:59.193Z,17.40
2017-07-12T13:19:26.739Z,17.60
2017-07-12T13:21:54.636Z,17.80
2017-07-12T13:24:22.173Z,18.10
2017-07-12T13:26:49.751Z,18.10
2017-07-12T13:29:17.303Z,18.10
2017-07-12T13:31:44.891Z,18.10
2017-07-12T13:34:12.434Z,18.30
2017-07-12T13:36:39.974Z,18.40
2017-07-12T13:39:07.544Z,18.30
2017-07-12T13:41:35.085Z,18.40
2017-07-12T13:44:02.622Z,18.20
2017-07-12T13:46:30.226Z,18.50
2017-07-12T13:48:57.766Z,18.60
2017-07-12T13:51:25.316Z,18.60
2017-07-12T13:53:52.902Z,18.60
2017-07-12T13:56:20.434Z,18.50
2017-07-12T13:58:47.978Z,18.60
2017-07-12T14:01:15.566Z,18.40
2017-07-12T14:03:43.156Z,18.30
2017-07-12T14:06:10.723Z,18.20
2017-07-12T14:08:38.255Z,18.00
2017-07-12T14:11:05.830Z,18.00
2017-07-12T14:13:33.373Z,18.10
2017-07-12T14:16:00.918Z,18.10
2017-07-12T14:18:29.786Z,18.20
2017-07-12T14:20:57.336Z,18.10
2017-07-12T14:23:24.917Z,18.20
2017-07-12T14:25:52.466Z,18.00
2017-07-12T14:28:20.057Z,17.90
2017-07-12T14:30:47.631Z,17.80
2017-07-12T14:33:16.990Z,17.70
2017-07-12T14:35:45.303Z,17.60
2017-07-12T14:38:12.849Z,17.60
2017-07-12T14:40:40.431Z,17.60
2017-07-12T14:43:07.971Z,17.70
2017-07-12T14:45:40.237Z,17.80
2017-07-12T14:50:49.225Z,17.80
2017-07-12T14:53:21.086Z,17.80
2017-07-12T15:05:22.571Z,17.70
2017-07-12T15:07:50.498Z,17.80
2017-07-12T15:10:18.147Z,17.60
2017-07-12T15:12:45.785Z,17.50
2017-07-12T15:15:13.384Z,17.50
2017-07-12T15:17:41.836Z,17.50
2017-07-12T15:20:09.469Z,17.50
2017-07-12T15:22:37.114Z,17.40
2017-07-12T15:25:04.704Z,17.40
2017-07-12T15:33:19.036Z,17.40
2017-07-12T15:38:20.481Z,17.40
2017-07-12T15:40:48.875Z,17.40
2017-07-12T15:45:50.422Z,17.60
2017-07-12T15:48:18.007Z,17.60
2017-07-12T15:50:45.644Z,17.50
2017-07-12T15:53:13.527Z,17.60
2017-07-12T15:55:41.899Z,17.50
2017-07-12T16:04:00.524Z,17.40
2017-07-12T16:06:28.909Z,17.00
2017-07-12T16:11:59.592Z,16.70
2017-07-12T16:20:20.983Z,16.70
2017-07-12T16:25:35.494Z,16.80
2017-07-12T16:28:04.000Z,17.00
2017-07-12T16:30:35.508Z,17.30
2017-07-12T16:38:49.220Z,17.70
2017-07-12T16:41:19.632Z,17.90
2017-07-12T16:43:48.398Z,17.90
2017-07-12T16:46:16.178Z,18.00
2017-07-12T16:48:43.762Z,17.90
2017-07-12T16:51:12.135Z,17.80
2017-07-12T16:53:39.743Z,17.90
2017-07-12T16:56:07.297Z,17.90
2017-07-12T16:58:34.854Z,17.80
2017-07-12T17:01:02.446Z,17.80
2017-07-12T17:03:30.010Z,17.80
2017-07-12T17:05:57.578Z,17.70
2017-07-12T17:08:25.166Z,17.80
2017-07-12T17:10:52.714Z,17.80
2017-07-12T17:13:21.026Z,17.70
2017-07-12T17:15:48.575Z,17.70
2017-07-12T17:18:16.152Z,17.60
2017-07-12T17:20:43.700Z,17.70
2017-07-12T17:23:11.293Z,17.80
2017-07-12T17:25:38.843Z,17.80
2017-07-12T17:28:06.403Z,17.70
2017-07-12T17:30:34.012Z,17.50
2017-07-12T17:33:01.560Z,17.60
2017-07-12T17:35:29.154Z,17.60
2017-07-12T17:37:56.716Z,17.60
2017-07-12T17:40:24.309Z,17.60
2017-07-12T17:42:51.865Z,17.50
2017-07-12T17:45:19.453Z,17.50
2017-07-12T18:01:49.036Z,17.60
2017-07-12T18:04:16.596Z,17.60
2017-07-12T18:06:50.959Z,17.70
2017-07-12T18:12:19.347Z,17.70
2017-07-12T18:14:46.976Z,17.60
2017-07-12T18:17:14.659Z,17.60
2017-07-12T18:19:42.247Z,17.60
2017-07-12T18:22:09.870Z,17.50
2017-07-12T18:24:37.439Z,17.40
2017-07-12T18:27:05.100Z,17.50
2017-07-12T18:29:32.675Z,17.50
2017-07-12T18:32:02.284Z,17.40
2017-07-12T18:34:30.268Z,17.40
2017-07-12T18:36:57.993Z,17.40
2017-07-12T18:39:25.667Z,17.40
2017-07-12T18:41:53.221Z,17.50
2017-07-12T18:44:21.337Z,17.40
2017-07-12T18:46:50.391Z,17.40
2017-07-12T18:49:17.991Z,17.40
2017-07-12T18:51:45.582Z,17.40
2017-07-12T18:54:13.163Z,17.30
2017-07-12T18:56:40.728Z,17.20
2017-07-12T19:10:49.886Z,16.90
2017-07-12T19:13:17.434Z,16.80
2017-07-12T19:15:45.881Z,16.70
2017-07-12T19:18:13.461Z,16.60
2017-07-12T19:20:41.015Z,16.60
2017-07-12T19:23:09.634Z,16.40
2017-07-12T19:25:37.455Z,16.30
2017-07-12T19:28:05.002Z,16.30
2017-07-12T19:30:33.972Z,16.20
2017-07-12T19:33:01.896Z,16.10
2017-07-12T19:35:29.499Z,16.10
2017-07-12T19:37:59.837Z,16.10
2017-07-12T19:40:28.063Z,16.00
2017-07-12T19:42:55.952Z,15.90
2017-07-12T19:45:23.667Z,15.80
2017-07-12T19:47:51.290Z,15.80
2017-07-12T19:50:19.946Z,15.60
2017-07-12T19:52:47.534Z,15.60
2017-07-12T19:55:17.970Z,15.70
2017-07-12T19:57:46.837Z,15.50
2017-07-12T20:00:18.616Z,15.40
2017-07-12T20:02:46.155Z,15.40
2017-07-12T20:05:13.751Z,15.30
2017-07-12T20:07:41.298Z,15.30
2017-07-12T20:10:10.840Z,15.20
2017-07-12T20:12:43.188Z,15.10
2017-07-12T20:15:11.258Z,15.10
2017-07-12T20:17:44.650Z,15.00
2017-07-12T20:20:13.398Z,15.00
2017-07-12T20:22:41.864Z,14.90
2017-07-12T20:25:09.411Z,14.80
2017-07-12T20:27:37.805Z,14.70
2017-07-12T20:30:05.347Z,14.60
2017-07-12T20:32:32.930Z,14.50
2017-07-12T20:35:00.637Z,14.30
2017-07-12T20:37:28.183Z,14.20
2017-07-12T20:39:56.931Z,14.20
2017-07-12T20:42:24.479Z,14.10
2017-07-12T20:44:55.498Z,14.10
2017-07-12T20:47:23.087Z,14.00
2017-07-12T20:49:54.383Z,14.10
2017-07-12T20:52:21.974Z,14.00
2017-07-12T20:54:50.180Z,13.90
2017-07-12T20:57:18.248Z,14.00
2017-07-12T20:59:45.933Z,14.00
2017-07-12T21:02:13.482Z,14.00
2017-07-12T21:04:41.064Z,13.90
2017-07-12T21:07:09.195Z,13.80
2017-07-12T21:09:36.793Z,13.80
2017-07-12T21:12:04.353Z,13.70
2017-07-12T21:14:31.930Z,13.70
2017-07-12T21:16:59.497Z,13.60
2017-07-12T21:19:27.068Z,13.60
2017-07-12T21:21:54.692Z,13.60
2017-07-12T21:24:22.630Z,13.60
2017-07-12T21:26:50.188Z,13.50
2017-07-12T21:29:17.754Z,13.40
2017-07-12T21:31:45.297Z,13.40
2017-07-12T21:34:12.866Z,13.30
2017-07-12T21:36:40.660Z,13.40
2017-07-12T21:39:08.254Z,13.60
2017-07-12T21:41:35.810Z,13.30
2017-07-12T21:44:03.378Z,13.20
2017-07-12T21:46:32.161Z,13.10
2017-07-12T21:48:59.715Z,13.00
2017-07-12T21:51:27.283Z,13.00
2017-07-12T21:54:12.386Z,13.00
2017-07-12T21:56:57.551Z,13.00
2017-07-12T21:59:42.459Z,13.00
2017-07-12T22:02:27.453Z,13.00
2017-07-12T22:05:12.319Z,13.00
2017-07-12T22:07:57.328Z,12.90
2017-07-12T22:10:42.250Z,12.80
2017-07-12T22:13:27.308Z,12.80
2017-07-12T22:16:12.238Z,12.80
2017-07-12T22:18:57.319Z,12.80
2017-07-12T22:21:42.204Z,12.70
2017-07-12T22:24:27.153Z,12.70
2017-07-12T22:27:12.003Z,12.60
2017-07-12T22:29:56.955Z,12.70
2017-07-12T22:32:42.108Z,12.70
2017-07-12T22:35:27.112Z,12.60
2017-07-12T22:38:00.333Z,12.50
2017-07-12T22:40:33.471Z,12.40
2017-07-12T22:43:06.561Z,12.40
2017-07-12T22:45:34.138Z,12.40
2017-07-12T22:48:01.712Z,12.40
2017-07-12T22:50:29.241Z,12.30
2017-07-12T22:52:56.787Z,12.30
2017-07-12T22:55:24.372Z,12.30
2017-07-12T22:57:51.911Z,12.30
2017-07-12T23:00:19.449Z,12.20
2017-07-12T23:02:47.009Z,12.20
2017-07-12T23:05:14.579Z,12.10
2017-07-12T23:07:42.112Z,12.10
2017-07-12T23:10:09.686Z,12.20
2017-07-12T23:12:37.250Z,12.10
2017-07-12T23:15:04.784Z,11.90
2017-07-12T23:17:32.352Z,11.90
2017-07-12T23:19:59.890Z,11.90
2017-07-12T23:22:27.429Z,11.80
2017-07-12T23:24:55.004Z,11.70
2017-07-12T23:27:22.586Z,11.70
2017-07-12T23:29:50.118Z,11.80
2017-07-12T23:32:17.702Z,11.80
2017-07-12T23:34:45.252Z,11.70
2017-07-12T23:37:12.818Z,11.60
2017-07-12T23:39:40.370Z,11.40
2017-07-12T23:42:08.845Z,11.30
2017-07-12T23:44:36.375Z,11.40
2017-07-12T23:47:03.913Z,11.40
2017-07-12T23:49:31.495Z,11.40
2017-07-12T23:51:59.046Z,11.40
2017-07-12T23:54:26.583Z,11.50
2017-07-12T23:56:54.168Z,11.40
2017-07-12T23:59:21.712Z,11.10
